createdAt,value
2023-06-01T00:00:09.234Z,77.76
2023-06-01T00:02:44.396Z,77.56
2023-06-01T00:05:16.790Z,77.09
2023-06-01T00:07:49.177Z,76.76
2023-06-01T00:10:21.487Z,76.69
2023-06-01T00:12:53.781Z,76.75
2023-06-01T00:15:26.174Z,76.79
2023-06-01T00:18:02.307Z,76.66
2023-06-01T00:20:34.605Z,76.69
2023-06-01T00:23:07.767Z,76.66
2023-06-01T00:25:40.053Z,76.59
2023-06-01T00:28:12.446Z,76.78
2023-06-01T00:30:44.695Z,76.65
2023-06-01T00:33:19.610Z,76.77
2023-06-01T00:35:52.085Z,76.78
2023-06-01T00:38:24.503Z,76.72
2023-06-01T00:40:56.855Z,76.82
2023-06-01T00:43:29.153Z,76.92
2023-06-01T00:46:01.574Z,76.97
2023-06-01T00:48:36.709Z,76.83
2023-06-01T00:51:09.277Z,76.86
2023-06-01T00:53:41.615Z,76.87
2023-06-01T00:56:15.587Z,77.00
2023-06-01T00:58:48.515Z,77.13
2023-06-01T01:01:24.145Z,77.10
2023-06-01T01:04:02.248Z,77.04
2023-06-01T01:06:57.750Z,76.92
2023-06-01T01:09:46.484Z,76.72
2023-06-01T01:12:28.108Z,76.52
2023-06-01T01:15:12.075Z,76.66
2023-06-01T01:17:47.683Z,76.44
2023-06-01T01:20:31.898Z,76.35
2023-06-01T01:23:20.784Z,76.08
2023-06-01T01:26:13.683Z,75.76
2023-06-01T01:28:54.869Z,75.84
2023-06-01T01:31:29.641Z,75.99
2023-06-01T01:34:04.209Z,75.73
2023-06-01T01:36:37.268Z,75.77
2023-06-01T01:39:09.542Z,75.43
2023-06-01T01:41:41.759Z,75.72
2023-06-01T01:44:17.607Z,76.21
2023-06-01T01:47:02.916Z,76.27
2023-06-01T01:49:45.892Z,76.40
2023-06-01T01:52:23.066Z,76.44
2023-06-01T01:54:56.687Z,76.55
2023-06-01T01:57:31.102Z,76.62
2023-06-01T02:00:07.139Z,76.68
2023-06-01T02:02:39.799Z,76.78
2023-06-01T02:05:12.508Z,76.78
2023-06-01T02:07:44.915Z,76.20
2023-06-01T02:10:17.500Z,76.01
2023-06-01T02:12:49.745Z,75.54
2023-06-01T02:15:24.710Z,75.23
2023-06-01T02:17:58.016Z,75.18
2023-06-01T02:20:30.401Z,75.31
2023-06-01T02:23:02.713Z,75.49
2023-06-01T02:25:34.961Z,75.62
2023-06-01T02:28:08.450Z,75.66
2023-06-01T02:30:43.334Z,75.94
2023-06-01T02:33:15.729Z,76.11
2023-06-01T02:35:47.985Z,76.14
2023-06-01T02:38:20.491Z,76.22
2023-06-01T02:40:52.738Z,76.34
2023-06-01T02:43:24.985Z,76.30
2023-06-01T02:45:59.860Z,76.31
2023-06-01T02:48:32.149Z,76.43
2023-06-01T02:51:04.540Z,76.56
2023-06-01T02:53:36.835Z,76.59
2023-06-01T02:56:09.388Z,76.76
2023-06-01T02:58:42.855Z,76.94
2023-06-01T03:01:18.182Z,76.60
2023-06-01T03:03:53.792Z,76.30
2023-06-01T03:06:26.708Z,76.13
2023-06-01T03:08:58.931Z,76.14
2023-06-01T03:11:31.191Z,75.86
2023-06-01T03:14:03.418Z,75.76
2023-06-01T03:16:38.859Z,75.74
2023-06-01T03:19:11.274Z,75.84
2023-06-01T03:21:43.651Z,75.76
2023-06-01T03:24:15.847Z,75.86
2023-06-01T03:26:48.241Z,75.97
2023-06-01T03:29:21.439Z,76.02
2023-06-01T03:31:56.556Z,76.21
2023-06-01T03:34:33.990Z,76.44
2023-06-01T03:37:06.296Z,76.32
2023-06-01T03:39:38.582Z,76.24
2023-06-01T03:42:11.436Z,76.43
2023-06-01T03:44:45.212Z,76.59
2023-06-01T03:47:20.289Z,76.54
2023-06-01T03:49:52.518Z,76.45
2023-06-01T03:52:25.061Z,76.36
2023-06-01T03:54:57.334Z,76.56
2023-06-01T03:57:29.624Z,76.69
2023-06-01T04:00:02.901Z,76.70
2023-06-01T04:02:41.533Z,76.72
2023-06-01T04:05:18.043Z,76.58
2023-06-01T04:07:51.416Z,76.68
2023-06-01T04:10:24.294Z,76.73
2023-06-01T04:12:56.648Z,76.52
2023-06-01T04:15:29.046Z,76.31
2023-06-01T04:18:04.453Z,76.25
2023-06-01T04:20:36.761Z,76.16
2023-06-01T04:23:09.024Z,75.92
2023-06-01T04:25:45.410Z,75.51
2023-06-01T04:28:18.368Z,75.30
2023-06-01T04:30:52.482Z,75.10
2023-06-01T04:33:29.118Z,75.04
2023-06-01T04:36:02.319Z,74.87
2023-06-01T04:38:36.242Z,74.65
2023-06-01T04:41:08.482Z,74.54
2023-06-01T04:43:40.990Z,74.29
2023-06-01T04:46:13.247Z,74.04
2023-06-01T04:48:48.269Z,74.04
2023-06-01T04:51:21.043Z,73.81
2023-06-01T04:53:54.927Z,73.47
2023-06-01T04:56:30.813Z,73.15
2023-06-01T04:59:06.395Z,73.12
2023-06-01T05:01:44.963Z,73.16
2023-06-01T05:04:19.956Z,73.13
2023-06-01T05:06:52.428Z,72.68
2023-06-01T05:09:24.903Z,72.46
2023-06-01T05:12:03.260Z,72.54
2023-06-01T05:14:35.717Z,72.22
2023-06-01T05:17:08.542Z,71.86
2023-06-01T05:19:43.325Z,71.67
2023-06-01T05:22:15.892Z,71.61
2023-06-01T05:24:48.180Z,71.65
2023-06-01T05:27:22.695Z,71.65
2023-06-01T05:29:55.027Z,71.10
2023-06-01T05:32:27.280Z,71.07
2023-06-01T05:35:02.142Z,71.06
2023-06-01T05:37:34.318Z,70.92
2023-06-01T05:40:09.047Z,70.61
2023-06-01T05:42:41.393Z,70.60
2023-06-01T05:45:15.279Z,70.58
2023-06-01T05:47:47.555Z,70.30
2023-06-01T05:50:22.541Z,70.15
2023-06-01T05:52:54.813Z,69.92
2023-06-01T05:55:27.224Z,69.71
2023-06-01T05:57:59.533Z,69.79
2023-06-01T06:00:31.915Z,69.16
2023-06-01T06:03:05.593Z,68.71
2023-06-01T06:05:40.522Z,68.46
2023-06-01T06:08:12.777Z,68.01
2023-06-01T06:10:45.301Z,68.07
2023-06-01T06:13:18.954Z,68.28
2023-06-01T06:15:51.304Z,68.04
2023-06-01T06:18:23.524Z,67.95
2023-06-01T06:20:58.412Z,67.43
2023-06-01T06:23:31.615Z,67.52
2023-06-01T06:26:03.952Z,67.28
2023-06-01T06:28:36.239Z,67.05
2023-06-01T06:31:08.616Z,66.87
2023-06-01T06:33:40.953Z,66.68
2023-06-01T06:36:15.823Z,66.55
2023-06-01T06:38:48.721Z,66.44
2023-06-01T06:41:22.297Z,66.38
2023-06-01T06:43:54.568Z,65.87
2023-06-01T06:46:27.274Z,65.57
2023-06-01T06:49:04.226Z,64.71
2023-06-01T06:51:39.134Z,64.41
2023-06-01T06:54:12.085Z,63.95
2023-06-01T06:56:45.779Z,63.71
2023-06-01T06:59:18.200Z,63.49
2023-06-01T07:01:50.524Z,63.59
2023-06-01T07:04:22.824Z,63.66
2023-06-01T07:06:57.936Z,63.12
2023-06-01T07:09:30.150Z,63.31
2023-06-01T07:12:02.622Z,63.30
2023-06-01T07:14:34.866Z,63.13
2023-06-01T07:17:07.444Z,63.04
2023-06-01T07:19:39.661Z,62.85
2023-06-01T07:22:14.961Z,62.33
2023-06-01T07:24:47.362Z,61.77
2023-06-01T07:27:20.918Z,60.91
2023-06-01T07:29:56.388Z,60.64
2023-06-01T07:32:29.580Z,60.64
2023-06-01T07:35:03.036Z,60.62
2023-06-01T07:37:37.940Z,61.09
2023-06-01T07:40:12.975Z,60.91
2023-06-01T07:42:45.228Z,60.96
2023-06-01T07:45:18.870Z,60.90
2023-06-01T08:07:17.697Z,54.33
2023-06-01T08:09:50.763Z,54.36
2023-06-01T08:12:23.351Z,54.53
2023-06-01T08:18:15.674Z,54.52
2023-06-01T08:20:48.287Z,53.95
2023-06-01T08:23:23.920Z,53.71
2023-06-01T08:25:56.287Z,53.98
2023-06-01T08:28:28.524Z,54.42
2023-06-01T08:31:01.034Z,54.65
2023-06-01T08:33:33.626Z,54.78
2023-06-01T08:36:06.754Z,54.74
2023-06-01T08:38:41.617Z,54.38
2023-06-01T08:41:25.372Z,54.81
2023-06-01T08:44:02.206Z,54.90
2023-06-01T08:46:37.683Z,54.30
2023-06-01T08:49:15.519Z,54.34
2023-06-01T08:51:49.683Z,54.96
2023-06-01T08:54:25.959Z,55.29
2023-06-01T08:56:59.426Z,54.80
2023-06-01T08:59:31.881Z,54.76
2023-06-01T09:02:04.172Z,54.41
2023-06-01T09:04:43.071Z,54.45
2023-06-01T09:07:15.621Z,54.73
2023-06-01T09:09:50.750Z,54.65
2023-06-01T09:12:26.941Z,54.64
2023-06-01T09:15:17.817Z,54.49
2023-06-01T09:17:52.564Z,54.10
2023-06-01T09:20:30.229Z,54.66
2023-06-01T09:23:02.944Z,55.07
2023-06-01T09:25:39.457Z,54.51
2023-06-01T09:28:11.700Z,53.28
2023-06-01T09:30:46.648Z,52.87
2023-06-01T09:33:21.722Z,53.11
2023-06-01T09:35:55.046Z,53.98
2023-06-01T09:38:29.951Z,54.26
2023-06-01T09:41:07.021Z,54.49
2023-06-01T09:43:40.762Z,53.83
2023-06-01T09:46:15.576Z,52.89
2023-06-01T09:48:48.116Z,52.43
2023-06-01T09:51:31.190Z,51.95
2023-06-01T09:54:03.504Z,51.35
2023-06-01T09:56:48.199Z,51.51
2023-06-01T09:59:20.722Z,51.38
2023-06-01T10:01:56.230Z,52.13
2023-06-01T10:04:31.045Z,52.65
2023-06-01T10:07:04.863Z,52.35
2023-06-01T10:09:41.598Z,52.66
2023-06-01T10:12:16.782Z,52.61
2023-06-01T10:14:49.149Z,53.53
2023-06-01T10:17:22.720Z,53.21
2023-06-01T10:19:56.155Z,51.70
2023-06-01T10:22:28.547Z,51.46
2023-06-01T10:25:03.977Z,51.48
2023-06-01T10:27:47.093Z,51.23
2023-06-01T10:30:19.880Z,51.28
2023-06-01T10:32:55.512Z,51.15
2023-06-01T10:36:07.017Z,50.59
2023-06-01T10:38:39.520Z,49.76
2023-06-01T10:41:33.383Z,49.49
2023-06-01T10:44:08.253Z,49.75
2023-06-01T10:46:46.122Z,49.69
2023-06-01T10:49:18.798Z,49.30
2023-06-01T10:51:51.054Z,49.24
2023-06-01T10:54:34.872Z,48.47
2023-06-01T10:57:29.140Z,48.81
2023-06-01T11:00:20.085Z,49.12
2023-06-01T11:02:55.255Z,48.47
2023-06-01T11:05:48.188Z,48.22
2023-06-01T11:08:50.867Z,47.89
2023-06-01T11:11:24.506Z,48.71
2023-06-01T11:14:13.078Z,47.80
2023-06-01T11:16:48.600Z,47.53
2023-06-01T11:19:25.831Z,47.31
2023-06-01T11:22:03.753Z,46.97
2023-06-01T11:24:38.665Z,46.34
2023-06-01T11:27:13.695Z,45.89
2023-06-01T11:29:53.202Z,45.53
2023-06-01T11:32:32.553Z,44.17
2023-06-01T11:35:04.839Z,44.19
2023-06-01T11:37:37.163Z,44.06
2023-06-01T11:40:15.599Z,44.65
2023-06-01T11:42:48.086Z,44.62
2023-06-01T11:45:22.616Z,43.80
2023-06-01T11:47:57.716Z,43.57
2023-06-01T11:50:33.256Z,42.64
2023-06-01T11:53:05.979Z,42.89
2023-06-01T11:55:38.388Z,42.87
2023-06-01T11:58:11.437Z,42.99
2023-06-01T12:00:44.000Z,43.09
2023-06-01T12:03:19.133Z,42.58
2023-06-01T12:05:52.701Z,44.77
2023-06-01T12:08:29.688Z,44.63
2023-06-01T12:11:06.233Z,44.33
2023-06-01T12:13:38.456Z,44.79
2023-06-01T12:16:21.751Z,45.48
2023-06-01T12:18:57.780Z,46.22
2023-06-01T12:21:30.164Z,46.38
2023-06-01T12:24:03.124Z,46.80
2023-06-01T12:26:41.851Z,47.49
2023-06-01T12:29:14.105Z,47.99
2023-06-01T12:31:58.142Z,48.73
2023-06-01T12:34:33.137Z,49.31
2023-06-01T12:37:15.497Z,49.43
2023-06-01T12:39:48.069Z,49.72
2023-06-01T12:42:20.328Z,50.29
2023-06-01T12:45:00.231Z,51.20
2023-06-01T12:47:32.533Z,51.29
2023-06-01T12:50:13.870Z,51.43
2023-06-01T12:52:47.583Z,51.32
2023-06-01T12:55:21.373Z,51.83
2023-06-01T12:57:57.944Z,52.10
2023-06-01T13:00:39.473Z,52.16
2023-06-01T13:03:23.825Z,52.26
2023-06-01T13:05:58.940Z,52.23
2023-06-01T13:08:31.697Z,52.49
2023-06-01T13:11:04.256Z,52.45
2023-06-01T13:13:37.210Z,52.97
2023-06-01T13:16:10.832Z,52.63
2023-06-01T13:18:43.130Z,52.75
2023-06-01T13:21:18.397Z,52.93
2023-06-01T13:23:50.661Z,53.30
2023-06-01T13:26:23.596Z,53.94
2023-06-01T13:28:56.140Z,54.52
2023-06-01T13:31:28.804Z,55.03
2023-06-01T13:34:01.030Z,55.72
2023-06-01T13:36:36.870Z,56.01
2023-06-01T13:39:11.600Z,55.99
2023-06-01T13:41:44.324Z,56.55
2023-06-01T13:44:18.678Z,56.42
2023-06-01T13:46:51.018Z,55.72
2023-06-01T13:49:23.511Z,54.70
2023-06-01T13:51:58.571Z,54.27
2023-06-01T13:54:30.754Z,53.88
2023-06-01T13:57:06.860Z,54.12
2023-06-01T13:59:39.637Z,54.15
2023-06-01T14:02:12.986Z,54.11
2023-06-01T14:04:49.146Z,54.49
2023-06-01T14:07:26.268Z,54.69
2023-06-01T14:09:58.881Z,54.44
2023-06-01T14:12:31.343Z,54.55
2023-06-01T14:15:03.519Z,55.29
2023-06-01T14:17:35.861Z,56.00
2023-06-01T14:20:09.709Z,56.15
2023-06-01T14:22:44.633Z,56.02
2023-06-01T14:25:17.306Z,56.49
2023-06-01T14:27:49.547Z,56.87
2023-06-01T14:30:22.062Z,57.28
2023-06-01T14:32:54.341Z,57.76
2023-06-01T14:35:27.795Z,58.40
2023-06-01T14:38:02.646Z,59.06
2023-06-01T14:40:34.950Z,59.22
2023-06-01T14:43:07.173Z,59.23
2023-06-01T14:45:39.496Z,58.83
2023-06-01T14:48:11.971Z,58.93
2023-06-01T14:50:44.511Z,58.81
2023-06-01T14:53:19.611Z,58.50
2023-06-01T14:55:51.900Z,58.35
2023-06-01T14:58:24.238Z,58.26
2023-06-01T15:00:56.897Z,57.58
2023-06-01T15:03:29.310Z,57.65
2023-06-01T15:06:01.975Z,57.03
2023-06-01T15:08:37.076Z,56.39
2023-06-01T15:11:09.499Z,56.47
2023-06-01T15:13:43.259Z,56.83
2023-06-01T15:16:15.723Z,56.43
2023-06-01T15:18:48.188Z,56.55
2023-06-01T15:21:20.462Z,55.92
2023-06-01T15:23:55.418Z,55.81
2023-06-01T15:26:27.718Z,56.62
2023-06-01T15:29:00.061Z,57.24
2023-06-01T15:31:32.664Z,57.01
2023-06-01T15:34:06.442Z,56.83
2023-06-01T15:36:38.717Z,57.54
2023-06-01T15:39:14.627Z,57.81
2023-06-01T15:41:47.072Z,58.27
2023-06-01T15:44:19.486Z,58.81
2023-06-01T15:46:52.197Z,57.94
2023-06-01T15:49:24.728Z,57.79
2023-06-01T15:51:56.930Z,58.33
2023-06-01T15:54:31.760Z,57.88
2023-06-01T15:57:05.270Z,57.59
2023-06-01T15:59:37.773Z,57.74
2023-06-01T16:02:11.089Z,57.41
2023-06-01T16:04:43.379Z,57.20
2023-06-01T16:07:15.751Z,57.14
2023-06-01T16:09:55.674Z,56.91
2023-06-01T16:12:28.971Z,57.11
2023-06-01T16:15:01.192Z,56.65
2023-06-01T16:17:35.300Z,56.62
2023-06-01T16:20:08.432Z,57.06
2023-06-01T16:22:40.657Z,57.25
2023-06-01T16:25:15.700Z,56.55
2023-06-01T16:27:47.935Z,55.91
2023-06-01T16:30:20.511Z,55.46
2023-06-01T16:32:53.583Z,55.39
2023-06-01T16:35:25.953Z,55.14
2023-06-01T16:37:58.279Z,54.70
2023-06-01T16:40:33.310Z,54.61
2023-06-01T16:43:05.619Z,54.60
2023-06-01T16:45:37.985Z,55.09
2023-06-01T16:48:11.157Z,55.99
2023-06-01T16:50:45.304Z,56.99
2023-06-01T16:53:18.541Z,57.57
2023-06-01T16:56:14.070Z,57.80
2023-06-01T16:58:46.373Z,57.49
2023-06-01T17:01:18.619Z,57.97
2023-06-01T17:03:51.117Z,58.48
2023-06-01T17:06:24.443Z,58.83
2023-06-01T17:08:59.753Z,58.28
2023-06-01T17:11:34.553Z,58.49
2023-06-01T17:14:06.775Z,58.82
2023-06-01T17:16:39.164Z,59.13
2023-06-01T17:19:12.904Z,59.29
2023-06-01T17:21:45.692Z,59.36
2023-06-01T17:24:17.998Z,59.34
2023-06-01T17:26:52.940Z,59.76
2023-06-01T17:29:25.376Z,60.44
2023-06-01T17:31:57.660Z,60.78
2023-06-01T17:34:29.892Z,61.28
2023-06-01T17:37:02.411Z,61.66
2023-06-01T17:39:34.843Z,61.60
2023-06-01T17:42:10.395Z,61.73
2023-06-01T17:44:42.584Z,61.36
2023-06-01T17:47:14.836Z,61.23
2023-06-01T17:49:47.151Z,60.86
2023-06-01T17:52:19.511Z,61.04
2023-06-01T17:54:51.795Z,60.78
2023-06-01T17:57:26.716Z,60.66
2023-06-01T17:59:59.136Z,60.76
2023-06-01T18:02:31.384Z,60.73
2023-06-01T18:05:03.661Z,60.79
2023-06-01T18:07:35.894Z,61.26
2023-06-01T18:10:08.595Z,61.02
2023-06-01T18:12:43.451Z,61.08
2023-06-01T18:15:16.101Z,61.56
2023-06-01T18:17:48.488Z,61.93
2023-06-01T18:20:20.834Z,62.06
2023-06-01T18:22:56.167Z,62.26
2023-06-01T18:25:28.468Z,62.07
2023-06-01T18:28:03.246Z,62.15
2023-06-01T18:30:35.768Z,61.92
2023-06-01T18:33:08.294Z,61.71
2023-06-01T18:35:40.709Z,62.07
2023-06-01T18:38:12.980Z,62.24
2023-06-01T18:40:45.207Z,62.55
2023-06-01T18:43:20.144Z,62.79
2023-06-01T18:45:52.442Z,62.92
2023-06-01T18:48:25.947Z,62.91
2023-06-01T18:50:58.489Z,62.75
2023-06-01T18:53:30.760Z,62.45
2023-06-01T18:56:03.353Z,61.91
2023-06-01T18:58:38.301Z,61.73
2023-06-01T19:01:12.512Z,61.84
2023-06-01T19:03:47.639Z,61.90
2023-06-01T19:06:19.943Z,62.08
2023-06-01T19:08:54.664Z,62.43
2023-06-01T19:11:27.815Z,62.60
2023-06-01T19:14:02.646Z,62.92
2023-06-01T19:16:35.782Z,63.16
2023-06-01T19:19:08.328Z,63.54
2023-06-01T19:21:40.738Z,63.89
2023-06-01T19:24:16.022Z,63.38
2023-06-01T19:26:48.984Z,63.50
2023-06-01T19:29:25.023Z,63.31
2023-06-01T19:31:57.324Z,63.19
2023-06-01T19:34:30.716Z,63.02
2023-06-01T19:37:02.979Z,63.20
2023-06-01T19:39:42.574Z,63.58
2023-06-01T19:42:39.831Z,63.77
2023-06-01T19:45:25.759Z,63.85
2023-06-01T19:47:58.941Z,63.51
2023-06-01T19:50:46.383Z,63.70
2023-06-01T19:53:20.320Z,63.89
2023-06-01T19:55:52.782Z,63.68
2023-06-01T19:58:25.134Z,63.52
2023-06-01T20:01:01.867Z,63.29
2023-06-01T20:03:41.429Z,63.28
2023-06-01T20:06:18.177Z,63.25
2023-06-01T20:08:51.179Z,62.91
2023-06-01T20:11:23.479Z,62.76
2023-06-01T20:13:55.697Z,62.73
2023-06-01T20:16:30.594Z,63.23
2023-06-01T20:19:02.930Z,63.43
2023-06-01T20:21:35.193Z,63.80
2023-06-01T20:24:07.624Z,63.88
2023-06-01T20:26:40.227Z,63.79
2023-06-01T20:29:21.194Z,63.73
2023-06-01T20:32:00.239Z,63.91
2023-06-01T20:34:34.370Z,63.82
2023-06-01T20:37:09.126Z,63.47
2023-06-01T20:39:41.613Z,63.54
2023-06-01T20:42:13.820Z,63.49
2023-06-01T20:44:46.287Z,63.29
2023-06-01T20:47:22.682Z,63.42
2023-06-01T20:49:55.099Z,63.46
2023-06-01T20:52:27.306Z,63.59
2023-06-01T20:55:01.878Z,63.69
2023-06-01T20:57:34.140Z,63.91
2023-06-01T21:00:06.434Z,63.98
2023-06-01T21:02:41.285Z,64.12
2023-06-01T21:05:13.881Z,64.41
2023-06-01T21:07:46.051Z,64.18
2023-06-01T21:10:18.457Z,64.15
2023-06-01T21:12:50.737Z,64.21
2023-06-01T21:15:22.997Z,64.33
2023-06-01T21:17:57.956Z,64.67
2023-06-01T21:20:30.691Z,64.92
2023-06-01T21:23:02.928Z,64.86
2023-06-01T21:25:35.136Z,65.15
2023-06-01T21:28:07.330Z,65.45
2023-06-01T21:30:43.306Z,65.61
2023-06-01T21:33:18.458Z,65.73
2023-06-01T21:35:50.978Z,65.86
2023-06-01T21:38:23.327Z,65.69
2023-06-01T21:40:56.081Z,65.81
2023-06-01T21:43:28.863Z,65.26
2023-06-01T21:46:01.437Z,65.12
2023-06-01T21:48:36.942Z,64.56
2023-06-01T21:51:09.200Z,63.80
2023-06-01T21:53:41.507Z,63.77
2023-06-01T21:56:14.087Z,63.56
2023-06-01T21:58:47.653Z,62.96
2023-06-01T22:01:19.984Z,62.58
2023-06-01T22:03:54.974Z,62.87
2023-06-01T22:06:27.336Z,63.06
2023-06-01T22:08:59.773Z,63.05
2023-06-01T22:11:32.069Z,62.92
2023-06-01T22:14:04.364Z,62.95
2023-06-01T22:16:36.709Z,63.04
2023-06-01T22:19:11.784Z,62.92
2023-06-01T22:21:44.239Z,62.99
2023-06-01T22:24:16.617Z,62.79
2023-06-01T22:26:48.862Z,62.53
2023-06-01T22:29:21.257Z,62.06
2023-06-01T22:31:53.586Z,61.81
2023-06-01T22:34:28.567Z,61.67
2023-06-01T22:37:00.851Z,61.70
2023-06-01T22:39:33.141Z,61.88
2023-06-01T22:42:05.439Z,61.85
2023-06-01T22:44:37.867Z,61.81
2023-06-01T22:47:13.955Z,62.03
2023-06-01T22:49:53.958Z,62.28
2023-06-01T22:52:27.288Z,62.33
2023-06-01T22:55:00.026Z,62.38
2023-06-01T22:57:32.308Z,62.46
2023-06-01T23:00:07.925Z,62.59
2023-06-01T23:02:40.352Z,62.62
2023-06-01T23:05:18.122Z,62.75
2023-06-01T23:07:50.987Z,62.66
2023-06-01T23:10:23.466Z,62.59
2023-06-01T23:12:58.152Z,62.55
2023-06-01T23:15:31.808Z,62.57
2023-06-01T23:18:04.480Z,62.80
2023-06-01T23:20:39.571Z,62.76
2023-06-01T23:23:13.460Z,62.75
2023-06-01T23:25:45.912Z,62.67
2023-06-01T23:28:18.203Z,62.72
2023-06-01T23:30:50.673Z,62.82
2023-06-01T23:33:22.933Z,62.93
2023-06-01T23:35:57.790Z,62.84
2023-06-01T23:38:30.590Z,62.76
2023-06-01T23:41:02.869Z,62.84
2023-06-01T23:43:35.278Z,62.75
2023-06-01T23:46:07.574Z,62.93
2023-06-01T23:48:40.165Z,63.07
2023-06-01T23:51:15.249Z,63.21
2023-06-01T23:53:47.623Z,63.35
2023-06-01T23:56:20.112Z,63.26
2023-06-01T23:58:52.553Z,63.20
